Time;durP1;ratioP1;P1;durP2;ratioP2;P2;SDS_P1;SDS_P2;PMS_P1;PMS_P2;Temp;Humidity;BMP_temperature;BMP_pressure;BME280_temperature;BME280_humidity;BME280_pressure;Samples;Min_cycle;Max_cycle;Signal;HPM_P1;HPM_P2
2022/05/27 00:02:14;;;;;;;48.78;20.20;;;;;;;27.65;70.21;97322.63;4852050;29;20069;-63
2022/05/27 00:05:03;;;;;;;43.70;18.98;;;;;;;27.69;75.08;97328.38;4852397;29;20089;-62
2022/05/27 00:07:46;;;;;;;43.75;19.08;;;;;;;27.62;72.93;97328.28;4852723;29;20494;-63
2022/05/27 00:10:35;;;;;;;43.88;18.58;;;;;;;27.71;67.26;97324.50;4852348;29;20053;-64
2022/05/27 00:13:17;;;;;;;33.97;17.38;;;;;;;27.75;69.49;97327.63;4852119;29;20133;-64
2022/05/27 00:16:06;;;;;;;39.92;18.48;;;;;;;27.78;68.72;97328.03;4852518;29;20053;-65
2022/05/27 00:18:48;;;;;;;45.25;18.52;;;;;;;27.87;67.92;97335.88;4852177;29;20082;-64
2022/05/27 00:21:37;;;;;;;36.65;16.15;;;;;;;27.94;68.04;97342.03;4851708;29;20440;-63
2022/05/27 00:24:19;;;;;;;35.03;17.38;;;;;;;27.99;74.97;97335.19;4854538;29;20041;-64
2022/05/27 00:27:14;;;;;;;43.50;18.05;;;;;;;27.98;78.35;97335.38;4852132;29;20057;-63
2022/05/27 00:29:50;;;;;;;46.63;17.15;;;;;;;27.96;67.31;97345.34;4849514;29;20053;-63
2022/05/27 00:32:43;;;;;;;43.85;17.45;;;;;;;27.99;67.64;97350.25;4850158;29;20089;-64
2022/05/27 00:35:26;;;;;;;42.42;16.88;;;;;;;28.03;67.49;97352.34;4851630;29;20395;-64
2022/05/27 00:38:15;;;;;;;39.42;17.10;;;;;;;28.11;63.37;97348.75;4851465;29;20089;-64
2022/05/27 00:40:59;;;;;;;45.60;17.48;;;;;;;28.13;69.04;97354.69;4854248;29;20061;-64
2022/05/27 00:43:54;;;;;;;34.85;17.52;;;;;;;28.07;69.00;97360.75;4851965;29;20045;-64
2022/05/27 00:46:33;;;;;;;31.85;16.98;;;;;;;28.04;70.31;97356.63;4854174;29;20138;-64
2022/05/27 00:49:28;;;;;;;38.45;19.20;;;;;;;28.06;69.23;97359.91;4851959;29;20154;-64
2022/05/27 00:52:16;;;;;;;33.83;17.85;;;;;;;28.11;76.60;97364.63;4851793;29;20073;-64
2022/05/27 00:55:09;;;;;;;40.25;19.55;;;;;;;28.09;73.22;97366.69;4848774;29;20204;-63
2022/05/27 00:58:08;;;;;;;38.40;18.13;;;;;;;28.10;75.08;97366.47;4851163;29;20052;-63
2022/05/27 01:01:06;;;;;;;40.42;18.75;;;;;;;28.09;68.49;97374.63;4847539;29;20057;-63
2022/05/27 01:03:43;;;;;;;37.92;19.30;;;;;;;28.15;70.81;97379.16;4851672;29;20053;-63
2022/05/27 01:06:33;;;;;;;43.53;19.00;;;;;;;28.19;70.25;97377.78;4851912;29;20313;-64
2022/05/27 01:09:15;;;;;;;46.58;18.98;;;;;;;28.24;69.02;97380.72;4851992;29;20056;-64
2022/05/27 01:12:16;;;;;;;43.30;18.30;;;;;;;28.27;71.20;97375.00;4849407;29;20045;-64
2022/05/27 01:15:27;;;;;;;60.42;20.20;;;;;;;28.35;65.36;97376.72;4851884;29;20393;-64
2022/05/27 01:22:39;;;;;;;58.97;22.83;;;;;;;28.58;65.18;97387.09;4836290;29;20629;-64
2022/05/27 01:26:04;;;;;;;59.53;21.17;;;;;;;28.60;68.04;97385.09;4836499;29;20093;-64
2022/05/27 01:29:37;;;;;;;51.08;22.00;;;;;;;28.69;74.92;97378.63;4797163;29;20051;-64
2022/05/27 01:32:52;;;;;;;48.53;22.15;;;;;;;28.71;68.59;97381.94;4796462;29;20145;-64
2022/05/27 01:36:01;;;;;;;45.72;23.23;;;;;;;28.76;70.50;97385.66;4802108;29;20116;-64
2022/05/27 01:39:09;;;;;;;59.28;28.10;;;;;;;28.83;76.46;97381.22;4800467;29;20061;-64
2022/05/27 01:42:19;;;;;;;57.22;25.77;;;;;;;28.96;86.34;97385.81;4800304;29;20059;-64
2022/05/27 01:45:15;;;;;;;64.90;25.33;;;;;;;29.02;79.14;97384.22;4812224;29;20152;-64
2022/05/27 01:48:03;;;;;;;53.53;25.98;;;;;;;29.11;81.02;97383.88;4817883;29;20626;-64
2022/05/27 01:51:13;;;;;;;62.25;26.55;;;;;;;29.36;75.49;97397.53;4818035;29;20420;-62
2022/05/27 01:54:08;;;;;;;55.23;25.60;;;;;;;29.71;74.97;97398.28;4831273;29;20120;-63
2022/05/27 01:57:14;;;;;;;44.47;23.35;;;;;;;30.00;77.75;97408.66;4817078;29;20064;-64
2022/05/27 02:00:07;;;;;;;56.00;22.92;;;;;;;30.31;71.36;97407.31;4817845;29;20046;-63
2022/05/27 02:02:59;;;;;;;48.42;20.33;;;;;;;30.63;69.71;97409.22;4828953;29;20055;-64
2022/05/27 02:06:13;;;;;;;47.13;19.80;;;;;;;30.88;65.94;97411.25;4799856;29;20047;-63
2022/05/27 02:09:08;;;;;;;32.85;15.30;;;;;;;31.20;65.75;97413.09;4799753;29;20142;-64
2022/05/27 02:11:56;;;;;;;26.63;12.82;;;;;;;31.39;56.46;97422.88;4799298;29;20117;-64
2022/05/27 02:15:01;;;;;;;28.98;11.70;;;;;;;31.76;54.14;97431.19;4799361;29;20111;-64
2022/05/27 02:18:00;;;;;;;28.60;11.32;;;;;;;32.05;56.26;97428.00;4821205;29;20062;-64
2022/05/27 02:20:54;;;;;;;28.75;11.77;;;;;;;32.27;55.64;97431.19;4817026;29;20127;-64
2022/05/27 02:23:50;;;;;;;29.50;12.00;;;;;;;32.58;55.63;97443.69;4815918;29;20061;-64
2022/05/27 02:26:39;;;;;;;35.05;12.38;;;;;;;32.68;53.50;97441.38;4823918;29;20148;-63
2022/05/27 02:29:30;;;;;;;36.65;12.27;;;;;;;32.93;56.34;97442.25;4846869;29;20136;-63
2022/05/27 02:32:22;;;;;;;31.42;12.57;;;;;;;33.08;57.66;97443.75;4854639;29;20142;-64
2022/05/27 02:35:29;;;;;;;33.45;12.57;;;;;;;33.22;50.97;97450.63;4852941;29;20136;-65
2022/05/27 02:38:11;;;;;;;26.02;10.57;;;;;;;33.52;49.89;97456.94;4853122;29;20049;-64
2022/05/27 02:41:06;;;;;;;24.88;10.85;;;;;;;33.79;49.60;97455.59;4853763;29;20053;-64
2022/05/27 02:43:56;;;;;;;33.97;11.20;;;;;;;33.71;49.40;97449.72;4853919;29;20061;-64
2022/05/27 02:47:05;;;;;;;31.52;11.27;;;;;;;33.99;53.13;97457.25;4851627;29;20409;-64
2022/05/27 02:50:19;;;;;;;30.15;10.70;;;;;;;33.86;47.93;97458.19;4853560;29;20092;-65
2022/05/27 02:53:16;;;;;;;39.97;11.82;;;;;;;33.96;44.83;97463.84;4851068;29;20049;-63
2022/05/27 02:56:34;;;;;;;30.73;11.63;;;;;;;34.29;47.96;97458.09;4852883;29;20136;-64
2022/05/27 02:59:19;;;;;;;29.50;11.30;;;;;;;34.07;46.10;97464.94;4843842;29;20052;-64
2022/05/27 03:02:20;;;;;;;28.80;11.45;;;;;;;34.43;49.54;97456.88;4852636;29;20101;-64
2022/05/27 03:05:02;;;;;;;23.65;11.05;;;;;;;34.60;46.56;97459.72;4853201;29;20053;-64
2022/05/27 03:08:37;;;;;;;24.67;11.40;;;;;;;34.58;45.99;97459.13;4852522;29;20053;-64
2022/05/27 03:11:35;;;;;;;28.33;11.93;;;;;;;34.42;47.11;97459.75;4849838;29;20080;-64
2022/05/27 03:14:46;;;;;;;35.03;11.82;;;;;;;34.61;45.18;97456.00;4852363;29;20049;-64
2022/05/27 03:18:31;;;;;;;37.00;11.57;;;;;;;34.62;46.33;97454.97;4851551;29;20145;-63
2022/05/27 03:21:32;;;;;;;34.50;11.63;;;;;;;34.83;45.56;97461.66;4758750;30;20129;-64
2022/05/27 03:25:00;;;;;;;23.00;10.50;;;;;;;35.18;47.45;97456.34;4759803;30;20121;-63
2022/05/27 03:27:48;;;;;;;28.58;10.32;;;;;;;35.19;44.26;97457.97;4852629;29;20041;-65
2022/05/27 03:30:57;;;;;;;23.50;10.15;;;;;;;35.33;47.33;97450.53;4851959;29;20061;-63
2022/05/27 03:34:30;;;;;;;30.48;10.48;;;;;;;35.33;46.85;97454.03;4846169;29;20090;-63
2022/05/27 03:37:43;;;;;;;24.92;9.68;;;;;;;35.59;44.52;97463.47;4777418;30;20055;-64
2022/05/27 03:40:30;;;;;;;43.30;12.02;;;;;;;35.61;43.64;97455.97;4852618;29;20054;-64
2022/05/27 03:43:20;;;;;;;29.52;10.65;;;;;;;35.40;44.71;97452.06;4852238;29;20049;-64
2022/05/27 03:46:05;;;;;;;32.42;12.70;;;;;;;35.79;43.36;97447.84;4853185;29;20084;-64
2022/05/27 03:48:47;;;;;;;35.25;12.30;;;;;;;35.40;44.99;97456.59;4851772;29;20057;-62
2022/05/27 03:51:42;;;;;;;30.45;13.20;;;;;;;35.64;44.77;97452.84;4852471;29;20075;-63
2022/05/27 03:54:25;;;;;;;31.38;13.40;;;;;;;35.91;43.49;97445.13;4850053;29;20061;-64
2022/05/27 03:57:20;;;;;;;38.15;14.25;;;;;;;36.13;43.37;97456.00;4850081;29;20046;-63
2022/05/27 03:59:56;;;;;;;35.95;14.20;;;;;;;35.65;42.77;97441.91;4858189;29;20069;-63
2022/05/27 04:02:46;;;;;;;42.35;13.52;;;;;;;35.71;43.03;97450.88;4855606;29;20055;-63
2022/05/27 04:05:29;;;;;;;30.92;12.55;;;;;;;35.94;42.12;97450.00;4853974;29;20069;-62
2022/05/27 04:08:17;;;;;;;29.63;12.10;;;;;;;36.28;42.84;97457.16;4854849;29;20061;-65
2022/05/27 04:11:07;;;;;;;32.67;12.18;;;;;;;36.29;45.85;97457.97;4853426;29;20141;-64
2022/05/27 04:13:49;;;;;;;24.63;12.25;;;;;;;36.21;43.38;97461.03;4852826;29;20061;-64
2022/05/27 04:16:38;;;;;;;30.20;12.75;;;;;;;36.16;43.49;97459.00;4852760;29;20572;-64
2022/05/27 04:19:19;;;;;;;34.85;12.75;;;;;;;36.19;42.95;97452.41;4852147;29;20086;-66
2022/05/27 04:22:09;;;;;;;28.67;11.80;;;;;;;36.46;40.73;97452.63;4852990;29;20057;-66
2022/05/27 04:24:58;;;;;;;41.13;12.75;;;;;;;36.48;40.44;97463.97;4855434;29;20053;-66
2022/05/27 04:27:43;;;;;;;35.58;13.48;;;;;;;36.39;42.71;97452.78;4852605;29;20137;-66
2022/05/27 04:30:31;;;;;;;30.38;12.07;;;;;;;36.61;44.21;97453.72;4852731;29;20080;-66
2022/05/27 04:33:22;;;;;;;24.92;12.02;;;;;;;36.37;41.17;97449.53;4855195;29;20057;-66
2022/05/27 04:36:07;;;;;;;26.00;11.80;;;;;;;36.63;43.37;97451.63;4852903;29;20077;-66
2022/05/27 04:38:57;;;;;;;26.05;11.60;;;;;;;36.85;43.57;97450.94;4852306;29;20549;-66
2022/05/27 04:41:41;;;;;;;37.38;12.75;;;;;;;37.49;44.14;97447.63;4852239;29;20056;-67
2022/05/27 04:44:30;;;;;;;31.27;12.27;;;;;;;37.33;40.19;97453.03;4851852;29;20049;-66
2022/05/27 04:47:26;;;;;;;29.13;11.77;;;;;;;37.46;41.75;97450.81;4852470;29;20128;-66
2022/05/27 04:50:01;;;;;;;26.63;10.48;;;;;;;36.63;41.43;97442.75;4852454;29;20057;-65
2022/05/27 04:52:58;;;;;;;28.25;12.15;;;;;;;37.23;40.14;97448.31;4852802;29;20053;-65
2022/05/27 04:55:36;;;;;;;26.00;12.60;;;;;;;37.28;41.37;97451.06;4850958;29;20566;-65
2022/05/27 04:58:25;;;;;;;21.90;11.02;;;;;;;36.80;39.79;97449.78;4851914;29;20046;-65
2022/05/27 05:01:15;;;;;;;27.30;10.75;;;;;;;37.32;38.81;97452.22;4852022;29;20056;-65
2022/05/27 05:04:04;;;;;;;31.83;10.55;;;;;;;36.97;40.22;97454.34;4852502;29;20061;-66
2022/05/27 05:06:47;;;;;;;32.05;11.18;;;;;;;36.29;40.74;97457.97;4850100;29;20064;-64
2022/05/27 05:09:40;;;;;;;23.13;9.77;;;;;;;37.19;42.87;97449.09;4853098;29;20046;-64
2022/05/27 05:12:24;;;;;;;31.70;9.60;;;;;;;37.89;42.31;97460.00;4853827;29;20050;-63
2022/05/27 05:15:13;;;;;;;26.70;8.65;;;;;;;37.84;42.32;97460.75;4854539;29;20533;-64
2022/05/27 05:17:56;;;;;;;;;;;;;;;37.84;41.79;97443.78;4849409;29;21090;-63
2022/05/27 05:20:52;;;;;;;21.13;9.18;;;;;;;37.72;37.61;97441.25;4841282;29;19928;-65
2022/05/27 05:23:27;;;;;;;25.05;9.75;;;;;;;37.55;39.08;97446.63;4848816;29;20049;-64
2022/05/27 05:26:23;;;;;;;;;;;;;;;37.97;40.10;97443.44;4851709;29;20063;-68
2022/05/27 05:29:05;;;;;;;15.43;7.53;;;;;;;37.97;39.47;97439.94;4851885;29;20333;-67
2022/05/27 05:31:55;;;;;;;21.63;8.75;;;;;;;37.67;36.45;97437.69;4851932;29;20122;-66
2022/05/27 05:34:43;;;;;;;23.00;8.32;;;;;;;37.74;38.92;97431.06;4851817;29;20065;-67
2022/05/27 05:37:27;;;;;;;28.77;9.23;;;;;;;37.60;37.12;97434.38;4851131;29;20164;-66
2022/05/27 05:40:19;;;;;;;;;;;;;;;37.82;42.73;97432.50;4851643;29;20049;-67
2022/05/27 05:43:10;;;;;;;26.65;8.45;;;;;;;37.42;38.65;97432.75;4850967;29;19928;-67
2022/05/27 05:45:58;;;;;;;23.60;9.48;;;;;;;37.85;37.71;97430.09;4841366;29;20062;-66
2022/05/27 05:48:48;;;;;;;24.45;8.82;;;;;;;37.94;38.60;97430.47;4852788;29;20107;-67
2022/05/27 05:51:36;;;;;;;27.15;9.25;;;;;;;37.76;37.65;97425.41;4851400;29;20049;-66
2022/05/27 05:54:22;;;;;;;24.92;9.40;;;;;;;37.71;38.54;97428.03;4851874;29;20114;-66
2022/05/27 05:57:11;;;;;;;29.67;8.82;;;;;;;37.32;37.53;97424.53;4852261;29;20140;-66
2022/05/27 05:59:55;;;;;;;;;;;;;;;38.01;39.21;97423.00;4855195;29;20144;-67
2022/05/27 06:02:52;;;;;;;24.85;10.57;;;;;;;37.97;38.78;97421.09;4850180;29;19928;-67
2022/05/27 06:05:27;;;;;;;22.60;9.38;;;;;;;38.01;38.35;97424.91;4850561;29;20782;-67
2022/05/27 06:08:18;;;;;;;;;;;;;;;37.87;41.44;97424.47;4850382;29;20169;-66
2022/05/27 06:11:01;;;;;;;21.13;9.00;;;;;;;37.58;40.43;97426.50;4850416;29;19939;-67
2022/05/27 06:13:50;;;;;;;25.73;9.45;;;;;;;37.90;37.18;97422.09;4851226;29;20053;-66
2022/05/27 06:16:40;;;;;;;23.42;11.07;;;;;;;37.46;39.25;97412.34;4851593;29;20214;-65
2022/05/27 06:19:21;;;;;;;;;;;;;;;37.34;39.67;97409.00;4849286;29;20156;-66
2022/05/27 06:22:11;;;;;;;34.72;13.23;;;;;;;37.48;40.08;97416.44;4850183;29;19935;-66
2022/05/27 06:24:53;;;;;;;28.90;9.85;;;;;;;37.63;38.78;97409.66;4851576;29;20161;-66
2022/05/27 06:27:49;;;;;;;28.95;10.35;;;;;;;37.54;37.13;97410.06;4845896;29;20087;-66
2022/05/27 06:37:15;;;;;;;21.92;8.52;;;;;;;37.48;37.83;97400.31;4832326;29;20763;-67
2022/05/27 06:40:06;;;;;;;23.45;8.82;;;;;;;37.60;37.30;97399.41;4833024;29;20670;-67
2022/05/27 06:42:48;;;;;;;16.13;9.65;;;;;;;37.46;38.07;97383.59;4832577;29;20454;-67
2022/05/27 06:45:37;;;;;;;21.85;9.05;;;;;;;37.57;39.73;97394.50;4834553;29;20194;-66
2022/05/27 06:48:26;;;;;;;23.35;8.50;;;;;;;37.31;38.06;97385.28;4833586;29;21180;-67
2022/05/27 06:51:08;;;;;;;22.33;10.15;;;;;;;37.30;37.94;97384.47;4833498;29;20386;-66
2022/05/27 06:53:57;;;;;;;17.70;8.05;;;;;;;37.62;38.15;97376.56;4838018;29;20054;-67
2022/05/27 06:56:41;;;;;;;27.02;8.80;;;;;;;37.59;38.88;97376.25;4833597;29;20143;-68
2022/05/27 06:59:32;;;;;;;23.92;7.88;;;;;;;37.47;37.44;97369.09;4833408;29;20497;-67
2022/05/27 07:02:14;;;;;;;;;;;;;;;37.64;38.76;97363.69;4832245;29;20054;-66
2022/05/27 07:05:03;;;;;;;22.85;8.25;;;;;;;37.45;38.05;97365.84;4833804;29;19928;-67
2022/05/27 07:07:52;;;;;;;20.17;7.70;;;;;;;37.55;37.71;97371.34;4835468;29;20381;-66
2022/05/27 07:10:41;;;;;;;21.05;8.43;;;;;;;37.60;37.56;97364.47;4835033;29;20046;-68
2022/05/27 07:13:30;;;;;;;17.80;8.55;;;;;;;37.46;37.32;97362.09;4835910;29;20158;-66
2022/05/27 07:16:20;;;;;;;18.33;9.60;;;;;;;37.39;36.49;97366.84;4845780;29;20049;-67
2022/05/27 07:19:22;;;;;;;16.55;7.25;;;;;;;37.41;36.80;97361.22;4832805;29;20475;-67
2022/05/27 07:22:14;;;;;;;31.92;8.15;;;;;;;37.51;38.17;97351.44;4843171;29;20656;-67
2022/05/27 07:25:04;;;;;;;19.10;7.95;;;;;;;37.61;39.29;97358.00;4832388;29;20074;-68
2022/05/27 07:27:47;;;;;;;;;;;;;;;37.66;37.49;97347.31;4833072;29;20061;-68
2022/05/27 07:30:37;;;;;;;17.35;7.47;;;;;;;37.48;37.73;97343.84;4832879;29;19929;-67
2022/05/27 07:33:20;;;;;;;15.07;7.72;;;;;;;37.23;38.61;97342.72;4833125;29;20140;-68
2022/05/27 07:36:16;;;;;;;18.77;7.40;;;;;;;37.38;37.48;97335.66;4833880;29;20885;-68
2022/05/27 07:38:52;;;;;;;17.85;7.15;;;;;;;37.55;36.75;97333.72;4834553;29;20865;-67
2022/05/27 07:41:42;;;;;;;24.20;8.00;;;;;;;37.66;37.11;97331.19;4846724;29;20148;-67
2022/05/27 07:44:24;;;;;;;29.60;7.53;;;;;;;37.40;38.46;97327.34;4833584;29;20054;-70
2022/05/27 07:47:12;;;;;;;16.13;7.53;;;;;;;37.48;38.05;97319.66;4833837;29;20461;-67
2022/05/27 07:49:55;;;;;;;18.58;8.13;;;;;;;37.48;37.64;97316.97;4822172;29;21256;-67
2022/05/27 07:52:44;;;;;;;33.40;8.23;;;;;;;37.34;36.89;97318.44;4832813;29;20057;-67
2022/05/27 07:55:27;;;;;;;20.38;7.30;;;;;;;37.40;36.86;97313.91;4832205;29;20144;-67
2022/05/27 07:58:23;;;;;;;24.60;7.90;;;;;;;37.50;37.43;97306.78;4832076;29;20050;-67
2022/05/27 08:00:58;;;;;;;23.13;7.50;;;;;;;37.31;36.26;97304.66;4831976;29;20046;-67
2022/05/27 08:03:48;;;;;;;21.30;7.50;;;;;;;37.29;38.52;97304.91;4831589;29;20054;-67
2022/05/27 08:06:30;;;;;;;25.63;8.15;;;;;;;37.42;35.30;97301.84;4831128;29;20462;-68
2022/05/27 08:09:25;;;;;;;17.75;7.63;;;;;;;37.23;38.90;97292.47;4832347;29;20073;-67
2022/05/27 08:12:07;;;;;;;17.25;7.55;;;;;;;37.29;38.88;97291.47;4831921;29;20084;-68
2022/05/27 08:14:56;;;;;;;21.83;7.30;;;;;;;37.57;38.42;97284.28;4834526;29;20054;-69
2022/05/27 08:17:39;;;;;;;17.88;8.35;;;;;;;37.58;36.67;97278.66;4826037;29;20245;-67
2022/05/27 08:20:37;;;;;;;24.00;9.20;;;;;;;37.67;36.15;97271.78;4831941;29;20057;-66
2022/05/27 08:23:26;;;;;;;22.80;8.30;;;;;;;37.60;37.40;97273.06;4832102;29;20162;-68
2022/05/27 08:26:08;;;;;;;22.25;9.18;;;;;;;37.54;37.00;97259.50;4835105;29;20057;-68
2022/05/27 08:29:03;;;;;;;23.60;7.95;;;;;;;37.58;36.73;97257.13;4846863;29;20147;-67
2022/05/27 08:31:51;;;;;;;23.95;7.93;;;;;;;37.63;36.11;97254.53;4850122;29;20054;-67
2022/05/27 08:41:31;;;;;;;23.27;7.63;;;;;;;37.52;35.46;97242.81;4850107;29;20473;-67
2022/05/27 08:44:15;;;;;;;19.35;7.13;;;;;;;37.61;37.24;97245.88;4756722;30;20145;-69
2022/05/27 08:47:44;;;;;;;24.50;7.75;;;;;;;37.62;36.97;97242.13;4848087;29;20419;-67
2022/05/27 08:50:50;;;;;;;22.83;7.43;;;;;;;37.51;35.68;97232.34;4849663;29;20370;-67
2022/05/27 08:53:32;;;;;;;22.35;7.70;;;;;;;37.33;38.20;97222.75;4850348;29;20115;-67
2022/05/27 09:00:06;;;;;;;19.70;6.95;;;;;;;37.04;35.74;97223.97;4845637;29;20843;-68
2022/05/27 09:02:58;;;;;;;27.35;8.10;;;;;;;37.22;36.29;97209.44;4849604;29;20064;-67
2022/05/27 09:05:59;;;;;;;20.30;7.55;;;;;;;37.22;35.93;97204.88;4849519;29;20433;-69
2022/05/27 09:08:41;;;;;;;22.17;7.00;;;;;;;37.14;37.13;97198.06;4851185;29;20363;-69
2022/05/27 09:11:42;;;;;;;18.05;7.85;;;;;;;37.24;38.07;97186.63;4849515;29;20378;-67
2022/05/27 09:14:33;;;;;;;25.13;7.35;;;;;;;37.37;38.10;97193.47;4849288;29;20505;-69
2022/05/27 09:17:22;;;;;;;29.05;7.60;;;;;;;37.34;35.43;97188.63;4848369;29;20206;-68
2022/05/27 09:20:35;;;;;;;26.25;7.68;;;;;;;37.34;38.65;97178.69;4846682;29;20151;-68
2022/05/27 09:23:34;;;;;;;27.08;7.93;;;;;;;37.42;36.66;97180.09;4849237;29;20162;-67
2022/05/27 09:26:48;;;;;;;20.95;7.43;;;;;;;37.46;35.44;97173.13;4848827;29;20053;-68
2022/05/27 09:30:05;;;;;;;21.88;7.20;;;;;;;37.44;36.65;97170.69;4831469;29;20053;-69
2022/05/27 09:32:47;;;;;;;20.95;6.82;;;;;;;37.43;39.08;97169.09;4830994;29;20479;-68
2022/05/27 09:36:01;;;;;;;28.92;7.35;;;;;;;37.41;36.15;97160.47;4831157;29;20057;-68
2022/05/27 09:38:53;;;;;;;25.67;8.40;;;;;;;37.37;35.05;97153.97;4836977;29;20054;-69
2022/05/27 09:42:15;;;;;;;27.85;6.95;;;;;;;37.17;35.30;97151.09;4833774;29;20058;-69
2022/05/27 09:44:56;;;;;;;20.33;6.72;;;;;;;37.17;35.67;97143.03;4846040;29;20276;-69
2022/05/27 09:47:45;;;;;;;25.50;7.57;;;;;;;37.23;35.82;97147.38;4831326;29;20057;-68
2022/05/27 09:50:49;;;;;;;37.42;9.30;;;;;;;37.29;34.94;97135.63;4829984;29;20157;-69
2022/05/27 09:53:52;;;;;;;22.42;7.90;;;;;;;37.24;37.74;97126.69;4830311;29;20117;-67
2022/05/27 09:56:48;;;;;;;34.45;7.65;;;;;;;37.20;36.83;97115.63;4834393;29;20151;-67
2022/05/27 11:18:51;;;;;;;26.90;8.55;;;;;;;35.86;40.91;97006.13;4809444;29;21275;-69
2022/05/27 11:22:08;;;;;;;21.80;8.10;;;;;;;35.99;39.70;97003.09;4814235;29;20058;-70
2022/05/27 11:25:15;;;;;;;18.63;7.85;;;;;;;36.13;38.68;97008.06;4829461;29;20126;-70
2022/05/27 11:28:06;;;;;;;23.17;7.45;;;;;;;36.12;39.91;97001.06;4819164;29;20054;-70
2022/05/27 11:30:58;;;;;;;20.05;7.22;;;;;;;36.10;41.04;97005.88;4822079;29;20124;-70
2022/05/27 11:34:22;;;;;;;27.58;7.45;;;;;;;36.06;40.22;97002.91;4815307;29;20136;-70
2022/05/27 11:37:43;;;;;;;21.25;7.95;;;;;;;36.04;39.46;97003.13;4814205;29;20136;-70
2022/05/27 11:40:37;;;;;;;27.30;8.93;;;;;;;36.10;38.26;97000.50;4812133;29;20141;-69
2022/05/27 11:43:29;;;;;;;26.67;8.18;;;;;;;36.26;37.33;97003.16;4813709;29;20054;-69
2022/05/27 11:46:32;;;;;;;20.42;7.75;;;;;;;36.34;38.55;97000.03;4814827;29;20586;-69
2022/05/27 11:49:41;;;;;;;21.40;8.13;;;;;;;36.20;37.25;96996.13;4814698;29;20170;-69
2022/05/27 11:52:45;;;;;;;22.63;7.30;;;;;;;36.23;37.76;96998.31;4812287;29;20058;-69
2022/05/27 11:55:40;;;;;;;22.13;6.53;;;;;;;36.28;37.40;96993.00;4812526;29;21200;-69
2022/05/27 11:59:09;;;;;;;24.90;7.85;;;;;;;36.33;37.90;96989.53;4811066;29;20058;-71
2022/05/27 12:02:06;;;;;;;22.30;6.43;;;;;;;36.16;40.26;96988.81;4812453;29;20824;-69
2022/05/27 12:05:02;;;;;;;34.53;9.23;;;;;;;36.03;37.79;96977.38;4812404;29;20429;-70
2022/05/27 12:07:50;;;;;;;18.02;6.63;;;;;;;35.99;38.67;96973.59;4812836;29;20050;-69
2022/05/27 12:10:55;;;;;;;18.38;6.90;;;;;;;35.89;38.59;96969.97;4811177;29;20065;-68
2022/05/27 12:13:38;;;;;;;38.08;9.15;;;;;;;35.77;39.83;96967.38;4813222;29;20403;-68
2022/05/27 12:16:38;;;;;;;22.10;7.45;;;;;;;35.96;38.39;96978.63;4817286;29;20062;-66
2022/05/27 12:19:42;;;;;;;24.23;7.95;;;;;;;35.92;38.52;96958.75;4847718;29;20068;-65
2022/05/27 12:22:24;;;;;;;25.48;7.15;;;;;;;35.98;36.34;96961.22;4832983;29;20415;-66
2022/05/27 12:25:25;;;;;;;18.98;6.57;;;;;;;36.04;36.94;96959.41;4855274;29;20105;-65
2022/05/27 12:28:15;;;;;;;30.88;7.30;;;;;;;35.97;37.60;96951.56;4851238;29;20509;-65
2022/05/27 12:30:59;;;;;;;21.38;6.85;;;;;;;35.82;38.76;96942.53;4850390;29;20041;-65
2022/05/27 12:33:49;;;;;;;21.33;7.28;;;;;;;35.72;38.37;96937.84;4849924;29;20105;-66
2022/05/27 12:36:34;;;;;;;23.77;7.07;;;;;;;35.62;38.00;96943.84;4849447;29;20053;-65
2022/05/27 12:39:31;;;;;;;27.70;8.40;;;;;;;35.58;38.61;96939.25;4847633;29;20446;-66
2022/05/27 12:42:13;;;;;;;31.25;7.97;;;;;;;35.64;40.48;96939.06;4849964;29;20053;-66
2022/05/27 12:45:02;;;;;;;30.90;7.53;;;;;;;35.54;39.53;96938.09;4850216;29;20041;-66
2022/05/27 12:47:47;;;;;;;31.02;9.35;;;;;;;35.48;39.14;96937.22;4849188;29;20057;-67
2022/05/27 12:50:41;;;;;;;22.80;8.65;;;;;;;35.45;39.10;96937.69;4848892;29;20096;-66
2022/05/27 12:53:36;;;;;;;29.67;8.45;;;;;;;35.47;39.70;96938.28;4850592;29;20073;-67
2022/05/27 13:02:55;;;;;;;24.23;7.30;;;;;;;35.45;38.82;96926.19;4849505;29;20134;-66
2022/05/27 13:06:12;;;;;;;27.42;7.65;;;;;;;35.39;36.81;96933.34;4848930;29;20086;-66
2022/05/27 13:09:01;;;;;;;23.55;6.82;;;;;;;35.31;37.66;96936.44;4852218;29;20131;-67
2022/05/27 13:11:56;;;;;;;23.70;7.13;;;;;;;35.22;38.47;96932.53;4849813;29;20149;-67
2022/05/27 13:14:43;;;;;;;23.15;7.57;;;;;;;35.14;39.45;96935.59;4848106;29;20057;-66
2022/05/27 13:17:52;;;;;;;21.10;7.05;;;;;;;35.04;38.99;96928.22;4847198;29;20057;-67
2022/05/27 13:20:51;;;;;;;20.83;6.43;;;;;;;34.89;40.50;96928.00;4849144;29;20418;-64
2022/05/27 13:24:00;;;;;;;18.98;7.28;;;;;;;34.79;40.39;96938.56;4834444;29;20056;-68
2022/05/27 13:27:16;;;;;;;21.60;7.50;;;;;;;34.68;40.17;96932.19;4847997;29;20049;-68
2022/05/27 13:30:11;;;;;;;25.65;7.72;;;;;;;34.52;43.60;96933.78;4850486;29;20126;-68
2022/05/27 13:33:11;;;;;;;30.92;7.72;;;;;;;34.36;41.78;96934.56;4851426;29;20078;-68
2022/05/27 13:35:55;;;;;;;23.92;8.75;;;;;;;34.28;41.53;96937.59;4854071;29;20130;-67
2022/05/27 13:38:48;;;;;;;33.42;9.02;;;;;;;34.28;44.07;96928.78;4853360;29;20049;-67
2022/05/27 13:41:51;;;;;;;27.88;8.02;;;;;;;34.20;41.95;96940.63;4850878;29;20045;-68
2022/05/27 13:44:49;;;;;;;28.90;7.65;;;;;;;34.11;41.68;96936.72;4851473;29;20065;-67
2022/05/27 13:48:25;;;;;;;29.38;10.45;;;;;;;33.98;42.04;96935.13;4852999;29;20061;-67
2022/05/27 13:51:20;;;;;;;30.35;7.78;;;;;;;33.87;42.34;96946.66;4845973;29;20566;-67
2022/05/27 13:54:16;;;;;;;28.73;7.90;;;;;;;33.77;41.46;96935.75;4835949;29;20056;-66
2022/05/27 13:57:10;;;;;;;29.33;8.07;;;;;;;33.67;42.45;96930.19;4851189;29;20160;-68
2022/05/27 14:00:01;;;;;;;21.80;8.20;;;;;;;33.56;44.71;96934.50;4851695;29;20053;-68
2022/05/27 14:02:58;;;;;;;29.33;8.10;;;;;;;33.46;42.58;96933.44;4852493;29;20140;-66
2022/05/27 14:05:55;;;;;;;29.67;8.00;;;;;;;33.37;42.96;96920.44;4852939;29;20580;-65
2022/05/27 14:08:51;;;;;;;23.08;8.82;;;;;;;33.33;44.68;96921.16;4851580;29;20081;-66
2022/05/27 14:11:49;;;;;;;29.98;7.93;;;;;;;33.25;42.67;96918.84;4851050;29;20050;-67
2022/05/27 14:14:37;;;;;;;31.02;8.82;;;;;;;33.21;44.87;96926.50;4850599;29;20065;-67
2022/05/27 14:17:33;;;;;;;29.20;8.48;;;;;;;33.12;43.58;96921.72;4849840;29;20158;-66
2022/05/27 14:23:45;;;;;;;23.75;9.90;;;;;;;32.91;48.53;96939.09;4852628;29;20836;-66
2022/05/27 14:26:37;;;;;;;29.05;8.88;;;;;;;32.84;45.78;96949.88;4852939;29;20053;-67
2022/05/27 14:29:23;;;;;;;31.23;8.63;;;;;;;32.75;45.84;96951.25;4852380;29;20042;-66
2022/05/27 14:32:22;;;;;;;35.50;8.85;;;;;;;32.70;50.32;96958.31;4851078;29;20467;-67
2022/05/27 14:35:15;;;;;;;28.38;9.43;;;;;;;32.60;50.28;96959.66;4851004;29;20470;-66
2022/05/27 14:38:15;;;;;;;37.38;10.88;;;;;;;32.50;51.60;96966.56;4854163;29;20161;-66
2022/05/27 14:41:05;;;;;;;27.52;9.60;;;;;;;32.42;56.07;96966.88;4851757;29;20213;-66
2022/05/27 14:44:01;;;;;;;42.13;11.43;;;;;;;32.29;53.89;96984.69;4851939;29;20043;-66
2022/05/27 14:46:44;;;;;;;28.02;9.95;;;;;;;32.20;58.56;96980.72;4854549;29;20063;-66
2022/05/27 14:49:56;;;;;;;27.63;10.70;;;;;;;32.13;59.59;96987.13;4870859;29;20065;-66
2022/05/27 14:52:56;;;;;;;30.25;10.32;;;;;;;32.00;61.09;96998.78;4837006;29;20056;-66
2022/05/27 14:55:44;;;;;;;29.02;11.55;;;;;;;31.94;62.12;97004.97;4836484;29;20495;-66
2022/05/27 14:58:36;;;;;;;27.52;11.40;;;;;;;31.88;62.77;97006.69;4836396;29;20115;-66
2022/05/27 15:01:40;;;;;;;30.83;11.48;;;;;;;31.82;62.19;97006.75;4848843;29;20069;-66
2022/05/27 15:04:31;;;;;;;41.58;12.80;;;;;;;31.82;61.27;97017.41;4857189;29;20474;-67
2022/05/27 15:07:48;;;;;;;42.75;11.90;;;;;;;31.75;64.03;97016.69;4854502;29;20086;-67
2022/05/27 15:10:47;;;;;;;37.58;12.25;;;;;;;31.69;62.80;97028.22;4849225;29;20152;-67
2022/05/27 15:13:50;;;;;;;32.15;12.25;;;;;;;31.68;62.96;97037.25;4871509;29;20056;-66
2022/05/27 15:16:32;;;;;;;28.83;11.40;;;;;;;31.66;64.28;97033.97;4879037;29;20068;-67
2022/05/27 15:19:21;;;;;;;29.10;11.93;;;;;;;31.67;65.16;97033.75;4855401;29;20049;-67